createdAt,value
2019-04-25T00:01:08.676Z,2.27
2019-04-25T00:03:38.372Z,1.97
2019-04-25T00:06:07.921Z,1.50
2019-04-25T00:08:37.352Z,1.57
2019-04-25T00:11:07.770Z,1.93
2019-04-25T00:13:37.331Z,2.27
2019-04-25T00:16:07.649Z,1.70
2019-04-25T00:18:36.137Z,1.90
2019-04-25T00:21:13.008Z,1.47
2019-04-25T00:23:43.762Z,2.03
2019-04-25T00:26:41.503Z,2.30
2019-04-25T00:29:13.188Z,3.00
2019-04-25T00:31:43.709Z,2.47
2019-04-25T00:34:12.918Z,1.87
2019-04-25T00:36:43.522Z,2.30
2019-04-25T00:39:11.919Z,2.03
2019-04-25T00:41:43.857Z,1.83
2019-04-25T00:44:12.137Z,2.30
2019-04-25T00:46:43.285Z,2.10
2019-04-25T00:49:12.265Z,2.40
2019-04-25T00:51:42.676Z,2.57
2019-04-25T00:54:11.911Z,2.50
2019-04-25T00:56:43.301Z,1.97
2019-04-25T00:59:16.812Z,1.77
2019-04-25T01:02:16.584Z,1.70
2019-04-25T01:04:45.257Z,1.60
2019-04-25T01:07:13.805Z,1.80
2019-04-25T01:09:43.470Z,1.80
2019-04-25T01:12:13.577Z,2.73
2019-04-25T01:14:42.121Z,2.10
2019-04-25T01:17:11.685Z,2.10
2019-04-25T01:19:40.656Z,3.13
2019-04-25T01:22:09.397Z,2.13
2019-04-25T01:24:37.891Z,2.70
2019-04-25T01:27:08.230Z,2.97
2019-04-25T01:29:36.737Z,2.80
2019-04-25T01:32:07.580Z,5.07
2019-04-25T01:34:54.637Z,2.47
2019-04-25T01:37:51.111Z,2.20
2019-04-25T01:40:39.653Z,2.87
2019-04-25T01:43:29.577Z,2.73
2019-04-25T01:45:58.176Z,2.63
2019-04-25T01:48:26.615Z,2.13
2019-04-25T01:50:55.479Z,3.27
2019-04-25T01:53:24.235Z,3.23
2019-04-25T01:56:00.665Z,3.27
2019-04-25T01:58:23.659Z,3.13
2019-04-25T02:00:54.647Z,3.67
2019-04-25T02:03:27.008Z,2.80
2019-04-25T02:05:54.891Z,3.67
2019-04-25T02:08:23.939Z,3.37
2019-04-25T02:11:03.201Z,3.93
2019-04-25T02:13:33.657Z,2.80
2019-04-25T02:16:05.292Z,3.33
2019-04-25T02:18:34.023Z,2.63
2019-04-25T02:21:04.514Z,3.60
2019-04-25T02:23:34.112Z,3.50
2019-04-25T02:26:13.867Z,4.53
2019-04-25T02:28:33.789Z,3.03
2019-04-25T02:31:07.821Z,2.97
2019-04-25T02:33:34.029Z,3.33
2019-04-25T02:36:08.267Z,3.90
2019-04-25T02:38:34.327Z,3.43
2019-04-25T02:41:08.302Z,4.20
2019-04-25T02:43:35.072Z,3.97
2019-04-25T02:46:26.987Z,3.97
2019-04-25T02:49:28.950Z,4.40
2019-04-25T02:55:39.578Z,4.20
2019-04-25T02:58:10.043Z,3.80
2019-04-25T03:00:51.727Z,3.57
2019-04-25T03:03:09.148Z,3.90
2019-04-25T03:05:37.707Z,3.77
2019-04-25T03:08:09.026Z,4.47
2019-04-25T03:10:36.423Z,4.37
2019-04-25T03:13:09.623Z,4.30
2019-04-25T03:15:36.577Z,4.20
2019-04-25T03:18:09.251Z,5.40
2019-04-25T03:20:44.996Z,4.13
2019-04-25T03:23:35.073Z,3.30
2019-04-25T03:26:06.155Z,3.93
2019-04-25T03:28:35.489Z,4.47
2019-04-25T03:31:10.647Z,3.63
2019-04-25T03:33:37.750Z,4.43
2019-04-25T03:36:05.512Z,3.70
2019-04-25T03:38:35.041Z,3.07
2019-04-25T03:41:04.820Z,4.17
2019-04-25T03:43:33.762Z,3.23
2019-04-25T03:46:04.962Z,3.33
2019-04-25T03:48:36.466Z,3.57
2019-04-25T03:51:05.392Z,3.80
2019-04-25T03:53:34.352Z,4.43
2019-04-25T03:56:04.472Z,3.70
2019-04-25T03:58:33.783Z,2.83
2019-04-25T04:01:03.912Z,3.97
2019-04-25T04:03:33.916Z,3.23
2019-04-25T04:06:04.356Z,3.63
2019-04-25T04:08:35.446Z,3.10
2019-04-25T04:11:05.376Z,4.60
2019-04-25T04:13:34.277Z,2.90
2019-04-25T04:16:04.220Z,3.47
2019-04-25T04:18:54.083Z,4.97
2019-04-25T04:22:00.245Z,4.57
2019-04-25T04:24:36.202Z,3.27
2019-04-25T04:27:14.097Z,4.03
2019-04-25T04:29:43.202Z,4.10
2019-04-25T04:32:12.524Z,3.73
2019-04-25T04:34:45.166Z,5.60
2019-04-25T04:37:14.642Z,3.50
2019-04-25T04:39:43.720Z,3.67
2019-04-25T04:42:14.021Z,4.17
2019-04-25T04:44:43.750Z,3.27
2019-04-25T04:47:14.071Z,3.60
2019-04-25T04:49:43.942Z,3.53
2019-04-25T04:52:14.339Z,3.97
2019-04-25T04:54:43.975Z,4.77
2019-04-25T04:57:23.493Z,4.90
2019-04-25T04:59:43.845Z,4.80
2019-04-25T05:02:33.222Z,3.80
2019-04-25T05:05:30.418Z,4.77
2019-04-25T05:08:01.762Z,3.57
2019-04-25T05:10:30.248Z,4.17
2019-04-25T05:12:58.683Z,2.87
2019-04-25T05:15:27.169Z,3.67
2019-04-25T05:17:55.604Z,4.20
2019-04-25T05:20:24.339Z,3.20
2019-04-25T05:22:54.603Z,3.73
2019-04-25T05:25:24.581Z,3.13
2019-04-25T05:28:02.252Z,3.87
2019-04-25T05:30:29.900Z,3.60
2019-04-25T05:32:58.323Z,3.00
2019-04-25T05:35:26.821Z,3.60
2019-04-25T05:37:55.152Z,3.83
2019-04-25T05:40:24.433Z,3.00
2019-04-25T05:43:07.358Z,3.67
2019-04-25T05:45:35.856Z,3.67
2019-04-25T05:48:05.961Z,4.77
2019-04-25T05:50:34.644Z,4.37
2019-04-25T05:53:04.319Z,2.93
2019-04-25T05:55:34.146Z,4.63
2019-04-25T05:58:03.866Z,3.60
2019-04-25T06:00:34.115Z,4.70
2019-04-25T06:03:03.631Z,3.53
2019-04-25T06:05:33.508Z,3.83
2019-04-25T06:08:04.118Z,3.27
2019-04-25T06:10:39.698Z,3.03
2019-04-25T06:13:16.213Z,3.77
2019-04-25T06:15:46.501Z,4.00
2019-04-25T06:18:24.877Z,4.13
2019-04-25T06:20:54.307Z,3.67
2019-04-25T06:23:41.552Z,3.77
2019-04-25T06:26:23.099Z,3.93
2019-04-25T06:28:52.076Z,4.00
2019-04-25T06:31:11.181Z,3.43
2019-04-25T06:33:39.622Z,4.47
2019-04-25T06:36:08.204Z,4.40
2019-04-25T06:38:36.652Z,3.13
2019-04-25T06:41:05.152Z,4.63
2019-04-25T06:43:34.486Z,3.73
2019-04-25T06:46:21.107Z,4.83
2019-04-25T06:48:57.445Z,4.27
2019-04-25T06:51:54.701Z,4.20
2019-04-25T06:54:25.445Z,3.43
2019-04-25T06:56:53.924Z,4.03
2019-04-25T06:59:24.947Z,4.13
2019-04-25T07:01:54.112Z,2.80
2019-04-25T07:04:26.174Z,4.40
2019-04-25T07:06:53.586Z,4.20
2019-04-25T07:09:24.408Z,5.07
2019-04-25T07:11:53.781Z,3.73
2019-04-25T07:14:25.450Z,2.50
2019-04-25T07:16:53.278Z,3.43
2019-04-25T07:19:21.805Z,3.77
2019-04-25T07:21:50.725Z,3.43
2019-04-25T07:24:19.154Z,3.80
2019-04-25T07:26:56.116Z,3.50
2019-04-25T07:29:33.737Z,3.77
2019-04-25T07:32:32.516Z,4.00
2019-04-25T07:35:01.626Z,3.17
2019-04-25T07:37:30.117Z,3.37
2019-04-25T07:39:58.548Z,3.27
2019-04-25T07:42:27.671Z,5.60
2019-04-25T07:44:56.302Z,2.83
2019-04-25T07:47:26.040Z,3.17
2019-04-25T07:49:55.197Z,4.20
2019-04-25T07:52:23.625Z,4.20
2019-04-25T07:54:53.533Z,5.33
2019-04-25T07:57:23.791Z,3.80
2019-04-25T07:59:53.720Z,3.93
2019-04-25T08:02:23.302Z,3.27
2019-04-25T08:04:51.988Z,4.13
2019-04-25T08:07:20.472Z,4.30
2019-04-25T08:09:48.974Z,3.00
2019-04-25T08:12:17.396Z,4.17
2019-04-25T08:14:51.033Z,4.53
2019-04-25T08:17:39.874Z,3.70
2019-04-25T08:20:09.106Z,3.73
2019-04-25T08:22:50.081Z,3.73
2019-04-25T08:25:07.927Z,3.67
2019-04-25T08:27:36.756Z,4.23
2019-04-25T08:30:05.845Z,3.57
2019-04-25T08:32:35.512Z,3.77
2019-04-25T08:35:04.620Z,3.17
2019-04-25T08:37:34.469Z,3.70
2019-04-25T08:40:04.064Z,3.10
2019-04-25T08:42:35.236Z,3.13
2019-04-25T08:45:04.053Z,3.27
2019-04-25T08:47:33.205Z,3.77
2019-04-25T08:50:34.052Z,4.07
2019-04-25T08:53:01.773Z,3.47
2019-04-25T08:55:47.673Z,4.50
2019-04-25T08:58:28.300Z,3.77
2019-04-25T09:01:19.505Z,3.80
2019-04-25T09:03:53.912Z,3.83
2019-04-25T09:06:24.364Z,4.37
2019-04-25T09:08:54.052Z,3.47
2019-04-25T09:11:24.493Z,4.97
2019-04-25T09:13:53.762Z,3.70
2019-04-25T09:16:23.901Z,3.17
2019-04-25T09:18:53.947Z,3.33
2019-04-25T09:21:23.772Z,3.80
2019-04-25T09:23:53.553Z,3.50
2019-04-25T09:26:24.017Z,4.50
2019-04-25T09:28:53.622Z,3.60
2019-04-25T09:31:23.630Z,4.13
2019-04-25T09:33:54.525Z,6.07
2019-04-25T09:36:24.057Z,4.00
2019-04-25T09:38:55.269Z,2.97
2019-04-25T09:41:23.766Z,3.57
2019-04-25T09:43:55.125Z,3.30
2019-04-25T09:46:30.125Z,4.07
2019-04-25T09:49:19.821Z,3.50
2019-04-25T09:52:16.514Z,3.80
2019-04-25T09:54:53.538Z,4.20
2019-04-25T09:57:36.549Z,3.37
2019-04-25T10:00:07.745Z,3.43
2019-04-25T10:02:36.916Z,3.00
2019-04-25T10:05:05.754Z,4.47
2019-04-25T10:07:34.236Z,4.07
2019-04-25T10:10:03.769Z,3.13
2019-04-25T10:12:34.129Z,3.90
2019-04-25T10:15:23.673Z,3.20
2019-04-25T10:17:52.581Z,3.93
2019-04-25T10:20:21.016Z,3.00
2019-04-25T10:22:49.514Z,3.57
2019-04-25T10:25:19.424Z,4.43
2019-04-25T10:27:49.322Z,4.00
2019-04-25T10:30:23.166Z,4.23
2019-04-25T10:32:50.785Z,4.43
2019-04-25T10:35:20.312Z,3.70
2019-04-25T10:37:48.792Z,3.57
2019-04-25T10:40:17.633Z,4.73
2019-04-25T10:42:48.023Z,4.60
2019-04-25T10:45:23.410Z,3.90
2019-04-25T10:47:46.896Z,4.10
2019-04-25T10:50:15.798Z,4.80
2019-04-25T10:52:45.833Z,4.37
2019-04-25T10:55:14.613Z,5.87
2019-04-25T10:57:44.885Z,3.80
2019-04-25T11:00:35.873Z,4.37
2019-04-25T11:03:24.141Z,4.00
2019-04-25T11:05:54.409Z,3.80
2019-04-25T11:08:24.486Z,4.10
2019-04-25T11:10:54.967Z,4.07
2019-04-25T11:13:24.046Z,3.77
2019-04-25T11:15:52.590Z,4.57
2019-04-25T11:18:21.182Z,2.90
2019-04-25T11:20:50.369Z,3.87
2019-04-25T11:23:19.102Z,4.27
2019-04-25T11:25:47.633Z,4.60
2019-04-25T11:28:16.126Z,4.37
2019-04-25T11:30:46.878Z,3.17
2019-04-25T11:33:16.545Z,4.57
2019-04-25T11:35:47.494Z,5.67
2019-04-25T11:38:20.510Z,4.30
2019-04-25T11:40:56.184Z,4.23
2019-04-25T11:43:24.714Z,4.00
2019-04-25T11:45:55.552Z,3.70
2019-04-25T11:48:23.872Z,4.23
2019-04-25T11:50:55.721Z,4.67
2019-04-25T11:53:24.755Z,5.00
2019-04-25T11:55:53.813Z,4.53
2019-04-25T11:58:23.761Z,5.73
2019-04-25T12:00:53.816Z,4.40
2019-04-25T12:03:22.976Z,4.87
2019-04-25T12:05:53.162Z,4.43
2019-04-25T12:08:21.825Z,4.00
2019-04-25T12:10:50.281Z,6.03
2019-04-25T12:13:18.895Z,5.60
2019-04-25T12:15:47.233Z,5.27
2019-04-25T12:18:15.660Z,4.43
2019-04-25T12:20:44.719Z,5.53
2019-04-25T12:23:14.508Z,4.03
2019-04-25T12:25:45.338Z,3.47
2019-04-25T12:28:14.156Z,4.50
2019-04-25T12:30:43.952Z,5.53
2019-04-25T12:33:21.158Z,4.77
2019-04-25T12:35:43.767Z,4.90
2019-04-25T12:38:14.021Z,5.07
2019-04-25T12:40:43.448Z,5.40
2019-04-25T12:43:13.719Z,3.67
2019-04-25T12:46:00.663Z,3.80
2019-04-25T12:48:29.216Z,4.63
2019-04-25T12:50:58.181Z,3.93
2019-04-25T12:53:26.622Z,4.57
2019-04-25T12:55:56.121Z,4.20
2019-04-25T12:58:24.761Z,3.87
2019-04-25T13:00:58.199Z,4.33
2019-04-25T13:03:24.183Z,5.53
2019-04-25T13:05:54.006Z,4.97
2019-04-25T13:08:24.142Z,3.80
2019-04-25T13:10:54.392Z,4.33
2019-04-25T13:13:24.136Z,3.60
2019-04-25T13:15:53.277Z,4.63
2019-04-25T13:18:21.888Z,4.40
2019-04-25T13:20:50.844Z,3.70
2019-04-25T13:23:19.324Z,4.27
2019-04-25T13:25:47.928Z,4.53
2019-04-25T13:28:38.698Z,5.63
2019-04-25T13:31:41.806Z,4.27
2019-04-25T13:34:17.494Z,4.90
2019-04-25T13:36:46.083Z,4.07
2019-04-25T13:39:18.203Z,5.37
2019-04-25T13:41:46.806Z,4.70
2019-04-25T13:44:15.345Z,4.90
2019-04-25T13:46:44.260Z,5.67
2019-04-25T13:49:14.117Z,4.37
2019-04-25T13:51:42.821Z,4.43
2019-04-25T13:54:13.059Z,4.40
2019-04-25T13:56:43.378Z,3.53
2019-04-25T13:59:12.236Z,3.63
2019-04-25T14:01:40.842Z,3.87
2019-04-25T14:04:10.448Z,4.83
2019-04-25T14:06:39.389Z,4.40
2019-04-25T14:09:13.497Z,4.97
2019-04-25T14:11:41.991Z,4.13
2019-04-25T14:14:10.531Z,4.00
2019-04-25T14:17:03.073Z,3.87
2019-04-25T14:19:54.213Z,4.00
2019-04-25T14:22:23.381Z,4.07
2019-04-25T14:24:53.969Z,5.47
2019-04-25T14:27:24.019Z,5.67
2019-04-25T14:29:53.589Z,5.97
2019-04-25T14:32:26.824Z,5.13
2019-04-25T14:34:54.484Z,5.17
2019-04-25T14:37:26.327Z,5.47
2019-04-25T14:39:55.305Z,5.00
2019-04-25T14:42:24.491Z,4.50
2019-04-25T14:44:53.271Z,4.37
2019-04-25T14:47:23.139Z,4.97
2019-04-25T14:49:52.008Z,3.43
2019-04-25T14:52:21.229Z,5.23
2019-04-25T14:54:58.746Z,4.53
2019-04-25T14:57:29.814Z,4.67
2019-04-25T15:00:01.854Z,4.53
2019-04-25T15:02:30.717Z,4.50
2019-04-25T15:04:59.153Z,3.70
2019-04-25T15:07:28.108Z,5.13
2019-04-25T15:09:57.379Z,4.67
2019-04-25T15:12:26.849Z,4.17
2019-04-25T15:14:55.684Z,4.43
2019-04-25T15:17:24.179Z,4.90
2019-04-25T15:19:52.617Z,4.07
2019-04-25T15:22:21.105Z,6.03
2019-04-25T15:24:49.533Z,4.40
2019-04-25T15:27:18.334Z,4.43
2019-04-25T15:29:47.133Z,4.70
2019-04-25T15:32:18.825Z,3.90
2019-04-25T15:34:52.973Z,4.93
2019-04-25T15:37:30.642Z,4.07
2019-04-25T15:40:06.925Z,4.23
2019-04-25T15:42:48.174Z,4.73
2019-04-25T15:45:36.500Z,3.53
2019-04-25T15:48:07.270Z,3.60
2019-04-25T15:50:35.748Z,3.90
2019-04-25T15:53:04.356Z,5.60
2019-04-25T15:55:33.246Z,4.33
2019-04-25T15:58:01.731Z,4.93
2019-04-25T16:00:37.140Z,4.10
2019-04-25T16:03:06.830Z,5.00
2019-04-25T16:05:35.889Z,4.60
2019-04-25T16:08:05.395Z,4.30
2019-04-25T16:10:34.032Z,4.00
2019-04-25T16:13:03.584Z,5.23
2019-04-25T16:15:32.024Z,4.23
2019-04-25T16:18:01.289Z,4.10
2019-04-25T16:20:30.113Z,5.23
2019-04-25T16:22:58.714Z,4.67
2019-04-25T16:25:27.504Z,4.23
2019-04-25T16:27:55.934Z,4.73
2019-04-25T16:30:28.422Z,5.13
2019-04-25T16:32:57.170Z,4.77
2019-04-25T16:35:25.677Z,4.37
2019-04-25T16:37:54.108Z,4.37
2019-04-25T16:40:23.002Z,5.30
2019-04-25T16:42:51.794Z,4.77
2019-04-25T16:45:20.397Z,5.03
2019-04-25T16:47:48.817Z,5.30
2019-04-25T16:50:17.881Z,5.87
2019-04-25T16:52:46.401Z,4.87
2019-04-25T16:55:15.389Z,5.30
2019-04-25T16:57:43.808Z,4.43
2019-04-25T17:00:27.760Z,4.60
2019-04-25T17:02:56.204Z,5.50
2019-04-25T17:05:25.709Z,5.30
2019-04-25T17:07:54.980Z,4.27
2019-04-25T17:10:23.569Z,5.70
2019-04-25T17:12:52.452Z,5.13
2019-04-25T17:15:30.578Z,5.63
2019-04-25T17:18:20.106Z,5.63
2019-04-25T17:20:54.394Z,4.90
2019-04-25T17:23:22.924Z,5.40
2019-04-25T17:25:51.414Z,6.20
2019-04-25T17:28:19.861Z,5.70
2019-04-25T17:30:51.457Z,6.53
2019-04-25T17:33:51.316Z,6.13
2019-04-25T17:36:25.881Z,5.73
2019-04-25T17:39:25.901Z,5.40
2019-04-25T17:41:54.410Z,6.10
2019-04-25T17:44:22.827Z,5.93
2019-04-25T17:46:51.433Z,5.73
2019-04-25T17:49:19.854Z,5.93
2019-04-25T17:51:48.365Z,5.90
2019-04-25T17:54:18.464Z,5.03
2019-04-25T17:56:47.168Z,4.90
2019-04-25T17:59:15.599Z,6.00
2019-04-25T18:01:44.274Z,6.07
2019-04-25T18:04:12.808Z,6.13
2019-04-25T18:06:42.020Z,4.70
2019-04-25T18:09:10.641Z,5.53
2019-04-25T18:11:40.119Z,6.60
2019-04-25T18:14:08.930Z,6.33
2019-04-25T18:16:42.323Z,6.03
2019-04-25T18:19:34.051Z,5.47
2019-04-25T18:22:10.752Z,5.90
2019-04-25T18:24:56.786Z,6.17
2019-04-25T18:27:31.612Z,6.50
2019-04-25T18:30:00.052Z,7.03
2019-04-25T18:32:32.027Z,6.47
2019-04-25T18:35:18.875Z,6.03
2019-04-25T18:38:02.890Z,6.10
2019-04-25T18:40:56.706Z,5.50
2019-04-25T18:43:28.581Z,6.03
2019-04-25T18:46:01.673Z,5.90
2019-04-25T18:48:30.381Z,6.30
2019-04-25T18:50:58.895Z,6.03
2019-04-25T18:53:49.072Z,5.57
2019-04-25T18:56:31.669Z,5.30
2019-04-25T18:59:18.020Z,5.27
2019-04-25T19:02:24.379Z,5.40
2019-04-25T19:05:02.458Z,6.17
2019-04-25T19:07:32.036Z,6.13
2019-04-25T19:10:01.644Z,5.47
2019-04-25T19:12:31.351Z,6.53
2019-04-25T19:15:01.038Z,6.83
2019-04-25T19:17:30.629Z,6.07
2019-04-25T19:20:00.907Z,6.30
2019-04-25T19:22:31.238Z,6.03
2019-04-25T19:25:00.908Z,5.93
2019-04-25T19:27:30.590Z,6.03
2019-04-25T19:30:00.324Z,6.33
2019-04-25T19:32:31.078Z,5.67
2019-04-25T19:35:00.832Z,6.43
2019-04-25T19:37:30.367Z,6.10
2019-04-25T19:40:21.357Z,6.73
2019-04-25T19:42:54.079Z,6.27
2019-04-25T19:45:23.982Z,5.97
2019-04-25T19:47:53.818Z,1.00
2019-04-25T19:50:23.644Z,0.40
2019-04-25T19:52:53.417Z,0.40
2019-04-25T19:55:23.131Z,0.40
2019-04-25T19:57:53.328Z,0.40
2019-04-25T20:00:23.287Z,0.30
2019-04-25T20:03:12.915Z,0.40
2019-04-25T20:05:49.078Z,0.17
2019-04-25T20:08:46.840Z,0.20
2019-04-25T20:11:23.329Z,0.40
2019-04-25T20:13:53.419Z,0.20
2019-04-25T20:16:23.528Z,0.30
2019-04-25T20:18:53.954Z,0.67
2019-04-25T20:21:23.754Z,0.50
2019-04-25T20:23:54.382Z,0.10
2019-04-25T20:26:24.292Z,0.40
2019-04-25T20:28:53.893Z,0.30
2019-04-25T20:31:23.764Z,0.70
2019-04-25T20:34:04.193Z,0.17
2019-04-25T20:36:24.748Z,0.30
2019-04-25T20:38:55.386Z,0.30
2019-04-25T20:41:25.057Z,0.20
2019-04-25T20:43:55.698Z,0.50
2019-04-25T20:46:26.190Z,0.40
2019-04-25T20:48:56.414Z,2.00
2019-04-25T20:51:27.587Z,0.73
2019-04-25T20:53:57.107Z,1.53
2019-04-25T20:56:25.947Z,1.10
2019-04-25T20:58:55.565Z,0.50
2019-04-25T21:01:24.502Z,0.50
2019-04-25T21:03:54.092Z,0.30
2019-04-25T21:06:27.937Z,0.30
2019-04-25T21:08:57.547Z,0.40
2019-04-25T21:11:26.192Z,1.37
2019-04-25T21:14:12.541Z,0.40
2019-04-25T21:16:58.568Z,0.50
2019-04-25T21:19:29.775Z,0.30
2019-04-25T21:21:58.723Z,0.30
2019-04-25T21:24:27.326Z,0.40
2019-04-25T21:26:55.865Z,0.40
2019-04-25T21:29:25.164Z,0.30
2019-04-25T21:31:54.634Z,0.30
2019-04-25T21:34:27.028Z,0.30
2019-04-25T21:36:53.662Z,0.30
2019-04-25T21:39:38.082Z,0.63
2019-04-25T21:42:23.498Z,0.47
2019-04-25T21:44:52.826Z,0.20
2019-04-25T21:47:21.800Z,0.40
2019-04-25T21:49:51.115Z,0.57
2019-04-25T21:52:21.073Z,0.23
2019-04-25T21:54:50.236Z,0.30
2019-04-25T21:57:18.930Z,0.47
2019-04-25T21:59:58.828Z,0.40
2019-04-25T22:02:18.636Z,0.40
2019-04-25T22:04:47.474Z,0.40
2019-04-25T22:07:16.917Z,0.30
2019-04-25T22:09:46.132Z,0.30
2019-04-25T22:12:14.933Z,0.37
2019-04-25T22:14:43.370Z,0.30
2019-04-25T22:17:12.554Z,0.30
2019-04-25T22:19:41.344Z,0.30
2019-04-25T22:22:10.376Z,0.20
2019-04-25T22:24:38.984Z,0.40
2019-04-25T22:27:11.118Z,0.30
2019-04-25T22:29:42.421Z,0.20
2019-04-25T22:32:27.474Z,0.13
2019-04-25T22:35:14.199Z,0.17
2019-04-25T22:37:43.350Z,0.50
2019-04-25T22:40:11.888Z,0.10
2019-04-25T22:42:40.750Z,0.10
2019-04-25T22:45:09.529Z,0.10
2019-04-25T22:47:38.069Z,0.17
2019-04-25T22:50:06.716Z,0.10
2019-04-25T22:52:35.694Z,0.20
2019-04-25T22:55:04.746Z,0.17
2019-04-25T22:57:33.784Z,0.20
2019-04-25T23:00:03.237Z,0.20
2019-04-25T23:02:38.390Z,0.10
2019-04-25T23:05:17.208Z,0.10
2019-04-25T23:07:45.776Z,0.27
2019-04-25T23:10:14.782Z,0.30
2019-04-25T23:12:43.316Z,0.20
2019-04-25T23:15:13.715Z,0.20
2019-04-25T23:17:42.157Z,0.20
2019-04-25T23:20:11.731Z,0.23
2019-04-25T23:22:40.228Z,0.20
2019-04-25T23:25:12.024Z,0.30
2019-04-25T23:28:01.718Z,0.20
2019-04-25T23:30:40.989Z,0.30
2019-04-25T23:33:10.532Z,0.20
2019-04-25T23:35:39.428Z,0.20
2019-04-25T23:38:09.293Z,0.10
2019-04-25T23:40:38.522Z,0.20
2019-04-25T23:43:07.541Z,0.20
2019-04-25T23:45:36.384Z,0.40
2019-04-25T23:48:06.069Z,0.20
2019-04-25T23:50:36.094Z,0.23
2019-04-25T23:53:04.593Z,0.30
2019-04-25T23:55:33.340Z,0.20
2019-04-25T23:58:01.768Z,0.10
